Time;durP1;ratioP1;P1;durP2;ratioP2;P2;SDS_P1;SDS_P2;PMS_P1;PMS_P2;Temp;Humidity;BMP_temperature;BMP_pressure;BME280_temperature;BME280_humidity;BME280_pressure;Samples;Min_cycle;Max_cycle;Signal;HPM_P1;HPM_P2
2022/01/06 00:03:15;;;;;;;;;;;;;;;6.46;75.40;101413.97;10466803;28;19920;-78
2022/01/06 00:08:16;;;;;;;;;;;;;;;6.42;75.15;101413.25;10472126;28;19925;-77
2022/01/06 00:13:25;;;;;;;;;;;;;;;6.41;75.20;101421.28;10474607;28;20300;-78
2022/01/06 00:18:40;;;;;;;;;;;;;;;6.39;75.31;101423.13;10474884;28;19944;-78
2022/01/06 00:23:42;;;;;;;;;;;;;;;6.37;75.30;101427.66;10476982;28;19924;-77
2022/01/06 00:28:45;;;;;;;;;;;;;;;6.37;75.38;101431.16;10474648;28;19924;-77
2022/01/06 00:33:49;;;;;;;;;;;;;;;6.34;75.27;101423.31;10473343;28;19931;-77
2022/01/06 00:38:50;;;;;;;;;;;;;;;6.33;75.11;101421.63;10475218;28;19928;-78
2022/01/06 00:43:53;;;;;;;;;;;;;;;6.31;75.28;101415.53;10470153;28;19924;-78
2022/01/06 00:48:55;;;;;;;;;;;;;;;6.27;75.29;101427.19;10476444;28;19921;-77
2022/01/06 00:53:56;;;;;;;;;;;;;;;6.26;75.27;101428.13;10475426;28;20498;-77
2022/01/06 00:58:59;;;;;;;;;;;;;;;6.24;75.54;101433.50;10470742;28;19926;-77
2022/01/06 01:04:00;;;;;;;;;;;;;;;6.23;75.47;101433.56;10476418;28;19928;-77
2022/01/06 01:09:02;;;;;;;;;;;;;;;6.20;75.57;101439.00;10478359;28;19989;-77
2022/01/06 01:14:17;;;;;;;;;;;;;;;6.19;75.54;101442.56;10476545;28;19928;-77
2022/01/06 01:19:19;;;;;;;;;;;;;;;6.16;75.74;101450.66;10477097;28;19925;-77
2022/01/06 01:24:21;;;;;;;;;;;;;;;6.09;75.62;101455.38;10475928;28;19958;-78
2022/01/06 01:29:24;;;;;;;;;;;;;;;6.03;75.98;101458.31;10477006;28;19928;-78
2022/01/06 01:34:28;;;;;;;;;;;;;;;6.03;75.83;101466.25;10479188;28;19928;-78
2022/01/06 01:39:29;;;;;;;;;;;;;;;6.02;75.63;101469.81;10481606;28;19924;-77
2022/01/06 01:44:33;;;;;;;;;;;;;;;6.01;75.90;101468.13;10475045;28;19935;-77
2022/01/06 01:49:47;;;;;;;;;;;;;;;6.02;75.60;101473.31;10476952;28;19970;-78
2022/01/06 01:54:49;;;;;;;;;;;;;;;6.03;75.68;101490.13;10477012;28;20384;-78
2022/01/06 01:59:52;;;;;;;;;;;;;;;6.02;75.70;101488.38;10473638;28;19974;-77
2022/01/06 02:04:53;;;;;;;;;;;;;;;6.00;75.38;101482.28;10473423;28;20383;-78
2022/01/06 02:09:55;;;;;;;;;;;;;;;6.00;75.37;101488.44;10479852;28;19924;-78
2022/01/06 02:14:58;;;;;;;;;;;;;;;5.98;75.25;101487.66;10476696;28;19932;-77
2022/01/06 02:20:02;;;;;;;;;;;;;;;6.00;74.98;101508.81;10479688;28;19932;-77
2022/01/06 02:25:11;;;;;;;;;;;;;;;5.96;75.33;101500.09;10478576;28;19947;-78
2022/01/06 02:30:13;;;;;;;;;;;;;;;5.94;75.07;101501.06;10475880;28;19928;-77
2022/01/06 02:35:17;;;;;;;;;;;;;;;5.90;74.96;101497.69;10478395;28;19929;-77
2022/01/06 02:40:20;;;;;;;;;;;;;;;5.89;75.42;101503.03;10479386;28;19928;-78
2022/01/06 02:45:23;;;;;;;;;;;;;;;5.88;75.31;101509.25;10481043;28;19946;-77
2022/01/06 02:50:26;;;;;;;;;;;;;;;5.85;75.18;101512.91;10481278;28;19928;-78
2022/01/06 02:55:28;;;;;;;;;;;;;;;5.83;74.73;101506.81;10485431;28;19935;-78
2022/01/06 03:00:29;;;;;;;;;;;;;;;5.80;75.18;101518.41;10477922;28;19933;-77
2022/01/06 03:05:32;;;;;;;;;;;;;;;5.78;74.98;101519.38;10482078;28;21022;-78
2022/01/06 03:10:37;;;;;;;;;;;;;;;5.75;75.29;101511.56;10486872;28;19947;-77
2022/01/06 03:15:39;;;;;;;;;;;;;;;5.74;75.50;101517.78;10482679;28;19970;-77
2022/01/06 03:20:42;;;;;;;;;;;;;;;5.71;75.83;101521.44;10482874;28;20491;-77
2022/01/06 03:25:43;;;;;;;;;;;;;;;5.70;75.33;101519.69;10484932;28;19924;-77
2022/01/06 03:30:45;;;;;;;;;;;;;;;5.66;75.88;101521.59;10479703;28;20439;-77
2022/01/06 03:35:48;;;;;;;;;;;;;;;5.61;75.23;101518.31;10473299;28;19924;-78
2022/01/06 03:40:49;;;;;;;;;;;;;;;5.56;75.96;101528.22;10484070;28;19928;-78
2022/01/06 03:45:51;;;;;;;;;;;;;;;5.55;76.30;101530.91;10482527;28;19954;-77
2022/01/06 03:50:54;;;;;;;;;;;;;;;5.56;76.72;101548.56;10475523;28;19935;-77
2022/01/06 03:55:55;;;;;;;;;;;;;;;5.56;76.38;101554.72;10486740;28;19929;-78
2022/01/06 04:00:57;;;;;;;;;;;;;;;5.53;76.14;101575.16;10484379;28;19935;-78
2022/01/06 04:06:00;;;;;;;;;;;;;;;5.45;76.49;101572.81;10481824;28;19950;-78
2022/01/06 04:11:01;;;;;;;;;;;;;;;5.43;76.82;101572.84;10483394;28;19986;-78
2022/01/06 04:16:07;;;;;;;;;;;;;;;5.44;77.50;101571.06;10482459;28;19944;-78
2022/01/06 04:21:10;;;;;;;;;;;;;;;5.46;77.37;101583.34;10475551;28;19920;-78
2022/01/06 04:26:12;;;;;;;;;;;;;;;5.48;77.79;101580.63;10482882;28;20296;-78
2022/01/06 04:31:13;;;;;;;;;;;;;;;5.49;77.54;101579.72;10485150;28;20269;-78
2022/01/06 04:36:16;;;;;;;;;;;;;;;5.50;78.16;101560.25;10480529;28;19936;-78
2022/01/06 04:41:17;;;;;;;;;;;;;;;5.52;78.14;101573.41;10481683;28;19967;-78
2022/01/06 04:46:20;;;;;;;;;;;;;;;5.55;78.29;101571.50;10487492;28;19985;-78
2022/01/06 04:51:23;;;;;;;;;;;;;;;5.57;78.67;101574.09;10483334;28;19932;-78
2022/01/06 04:56:24;;;;;;;;;;;;;;;5.58;78.49;101579.34;10485194;28;21535;-78
2022/01/06 05:01:26;;;;;;;;;;;;;;;5.58;78.18;101576.72;10485899;28;19935;-79
2022/01/06 05:06:29;;;;;;;;;;;;;;;5.58;77.92;101592.59;10485910;28;19928;-78
2022/01/06 05:11:31;;;;;;;;;;;;;;;5.59;77.93;101596.09;10483810;28;19924;-78
2022/01/06 05:16:32;;;;;;;;;;;;;;;5.56;78.31;101599.75;10487212;28;19949;-78
2022/01/06 05:21:35;;;;;;;;;;;;;;;5.58;78.36;101605.00;10486493;28;19920;-78
2022/01/06 05:26:38;;;;;;;;;;;;;;;5.58;78.34;101608.50;10485648;28;20261;-78
2022/01/06 05:31:39;;;;;;;;;;;;;;;5.57;78.07;101606.75;10484432;28;20690;-78
2022/01/06 05:36:42;;;;;;;;;;;;;;;5.56;78.33;101597.09;10481620;28;19931;-78
2022/01/06 05:41:45;;;;;;;;;;;;;;;5.57;77.88;101600.59;10480548;28;19928;-78
2022/01/06 05:46:47;;;;;;;;;;;;;;;5.54;78.27;101606.91;10483560;28;19930;-78
2022/01/06 05:51:50;;;;;;;;;;;;;;;5.53;78.04;101596.34;10480919;28;19960;-78
2022/01/06 05:56:52;;;;;;;;;;;;;;;5.50;78.25;101607.94;10472673;28;19924;-78
2022/01/06 06:01:53;;;;;;;;;;;;;;;5.42;78.10;101608.19;10475952;28;20042;-79
2022/01/06 06:06:56;;;;;;;;;;;;;;;5.49;77.97;101627.41;10480210;28;19948;-79
2022/01/06 06:11:57;;;;;;;;;;;;;;;5.45;77.94;101626.66;10475961;28;20380;-78
2022/01/06 06:16:59;;;;;;;;;;;;;;;5.44;77.69;101634.63;10479928;28;19928;-79
2022/01/06 06:22:02;;;;;;;;;;;;;;;5.42;78.02;101634.69;10489970;28;20334;-78
2022/01/06 06:27:03;;;;;;;;;;;;;;;5.40;78.06;101643.63;10483335;28;19924;-78
2022/01/06 06:32:05;;;;;;;;;;;;;;;5.38;77.62;101654.28;10482805;28;19932;-78
2022/01/06 06:37:08;;;;;;;;;;;;;;;5.37;78.35;101654.31;10486205;28;20322;-78
2022/01/06 06:42:09;;;;;;;;;;;;;;;5.33;77.94;101656.25;10481093;28;19932;-78
2022/01/06 06:47:11;;;;;;;;;;;;;;;5.32;77.71;101664.25;10481644;28;19951;-78
2022/01/06 06:52:14;;;;;;;;;;;;;;;5.29;77.97;101667.00;10480525;28;19924;-78
2022/01/06 06:57:15;;;;;;;;;;;;;;;5.24;77.96;101677.78;10475276;28;19924;-78
2022/01/06 07:02:17;;;;;;;;;;;;;;;5.23;78.25;101676.03;10483903;28;19939;-78
2022/01/06 07:07:20;;;;;;;;;;;;;;;5.20;78.23;101662.91;10482982;28;19924;-78
2022/01/06 07:12:21;;;;;;;;;;;;;;;5.16;78.40;101667.44;10480447;28;20015;-78
2022/01/06 07:17:23;;;;;;;;;;;;;;;5.14;78.50;101671.94;10482914;28;20077;-77
2022/01/06 07:22:26;;;;;;;;;;;;;;;5.16;78.27;101666.56;10467172;28;19927;-77
2022/01/06 07:27:27;;;;;;;;;;;;;;;5.14;78.10;101677.25;10469670;28;19986;-77
2022/01/06 07:32:29;;;;;;;;;;;;;;;5.14;78.82;101676.34;10480662;28;19954;-77
2022/01/06 07:37:32;;;;;;;;;;;;;;;5.15;78.28;101678.94;10481418;28;20378;-77
2022/01/06 07:42:33;;;;;;;;;;;;;;;5.16;79.03;101695.69;10472627;28;19924;-77
2022/01/06 07:47:42;;;;;;;;;;;;;;;5.16;78.58;101695.69;10477835;28;19950;-77
2022/01/06 07:52:45;;;;;;;;;;;;;;;5.16;78.91;101693.03;10478227;28;19930;-77
2022/01/06 07:57:46;;;;;;;;;;;;;;;5.16;79.52;101696.59;10474154;28;19928;-77
2022/01/06 08:02:48;;;;;;;;;;;;;;;5.18;79.28;101701.81;10474373;28;19932;-77
2022/01/06 08:07:51;;;;;;;;;;;;;;;5.16;79.99;101707.19;10480207;28;19955;-76
2022/01/06 08:12:53;;;;;;;;;;;;;;;5.22;80.05;101714.03;10478590;28;20303;-79
2022/01/06 08:17:54;;;;;;;;;;;;;;;5.25;80.13;101721.84;10481004;28;19931;-78
2022/01/06 08:22:57;;;;;;;;;;;;;;;5.28;80.07;101727.06;10479496;28;20407;-77
2022/01/06 08:27:58;;;;;;;;;;;;;;;5.33;79.88;101726.88;10480387;28;19973;-76
2022/01/06 08:33:00;;;;;;;;;;;;;;;5.35;80.78;101733.88;10442818;28;19928;-77
2022/01/06 08:38:03;;;;;;;;;;;;;;;5.40;80.41;101731.91;10481927;28;19928;-77
2022/01/06 08:43:04;;;;;;;;;;;;;;;5.45;80.33;101729.97;10484692;28;19920;-77
2022/01/06 08:48:06;;;;;;;;;;;;;;;5.50;80.47;101739.53;10477859;28;19931;-78
2022/01/06 08:53:09;;;;;;;;;;;;;;;5.45;80.47;101719.38;10479772;28;19924;-77
2022/01/06 08:58:10;;;;;;;;;;;;;;;5.58;80.76;101741.00;10487824;28;19935;-78
2022/01/06 09:03:12;;;;;;;;;;;;;;;5.65;80.75;101744.25;10479184;28;20334;-78
2022/01/06 09:08:15;;;;;;;;;;;;;;;5.71;81.00;101736.13;10479397;28;19924;-78
2022/01/06 09:13:16;;;;;;;;;;;;;;;5.79;81.06;101741.13;10479832;28;20034;-77
2022/01/06 09:18:18;;;;;;;;;;;;;;;5.82;81.26;101741.00;10479483;28;19935;-77
2022/01/06 09:23:21;;;;;;;;;;;;;;;5.88;81.06;101742.56;10473162;28;19928;-77
2022/01/06 09:28:22;;;;;;;;;;;;;;;5.90;80.43;101748.69;10482454;28;19924;-78
2022/01/06 09:33:24;;;;;;;;;;;;;;;5.91;80.68;101747.75;10477982;28;19935;-77
2022/01/06 09:38:27;;;;;;;;;;;;;;;5.92;80.18;101747.69;10473982;28;19943;-77
2022/01/06 09:43:30;;;;;;;;;;;;;;;5.94;80.27;101766.22;10478594;28;19928;-77
2022/01/06 09:48:32;;;;;;;;;;;;;;;5.96;80.73;101759.09;10474166;28;19924;-77
2022/01/06 09:53:34;;;;;;;;;;;;;;;6.01;80.94;101762.44;10480329;28;19928;-77
2022/01/06 09:58:36;;;;;;;;;;;;;;;6.10;81.38;101764.72;10483981;28;20012;-76
2022/01/06 10:03:38;;;;;;;;;;;;;;;6.17;81.49;101771.53;10483458;28;19928;-76
2022/01/06 10:08:42;;;;;;;;;;;;;;;6.28;81.94;101768.47;10476742;28;19929;-76
2022/01/06 10:13:45;;;;;;;;;;;;;;;6.43;82.16;101762.56;10483337;28;20292;-76
2022/01/06 10:18:56;;;;;;;;;;;;;;;6.59;82.59;101759.28;10481966;28;19962;-76
2022/01/06 10:24:00;;;;;;;;;;;;;;;6.78;83.21;101757.63;10474324;28;20272;-76
2022/01/06 10:29:02;;;;;;;;;;;;;;;6.94;82.83;101757.84;10474773;28;20475;-77
2022/01/06 10:34:07;;;;;;;;;;;;;;;7.07;82.72;101754.69;10483977;28;19924;-76
2022/01/06 10:39:10;;;;;;;;;;;;;;;7.09;81.09;101752.84;10476237;28;20417;-78
2022/01/06 10:44:13;;;;;;;;;;;;;;;7.11;80.60;101749.19;10478308;28;20007;-76
2022/01/06 10:49:16;;;;;;;;;;;;;;;7.15;79.96;101755.22;10479299;28;19924;-77
2022/01/06 10:54:21;;;;;;;;;;;;;;;7.12;79.73;101758.00;10469564;28;19928;-77
2022/01/06 10:59:24;;;;;;;;;;;;;;;7.13;79.41;101759.75;10480962;28;20604;-77
2022/01/06 11:04:25;;;;;;;;;;;;;;;7.10;79.46;101747.47;10481138;28;19936;-77
2022/01/06 11:09:30;;;;;;;;;;;;;;;7.11;79.21;101759.81;10474270;28;19934;-76
2022/01/06 11:14:32;;;;;;;;;;;;;;;7.08;79.00;101769.69;10482084;28;20311;-76
2022/01/06 11:19:33;;;;;;;;;;;;;;;6.99;78.22;101765.66;10479647;28;19947;-77
2022/01/06 11:24:38;;;;;;;;;;;;;;;6.97;77.50;101765.72;10469933;28;20355;-77
2022/01/06 11:29:41;;;;;;;;;;;;;;;6.99;78.17;101769.16;10481913;28;20994;-77
2022/01/06 11:34:43;;;;;;;;;;;;;;;7.00;77.86;101748.75;10480535;28;20014;-77
2022/01/06 11:39:45;;;;;;;;;;;;;;;6.99;77.61;101747.06;10475881;28;19971;-78
2022/01/06 11:44:52;;;;;;;;;;;;;;;7.00;78.08;101746.09;10477635;28;19931;-77
2022/01/06 11:50:05;;;;;;;;;;;;;;;6.96;77.69;101737.41;10478466;28;20011;-77
2022/01/06 11:55:15;;;;;;;;;;;;;;;7.04;77.58;101736.22;10473836;28;19925;-77
2022/01/06 12:00:18;;;;;;;;;;;;;;;7.05;77.04;101733.50;10478858;28;19975;-79
2022/01/06 12:05:20;;;;;;;;;;;;;;;7.09;77.06;101729.78;10477875;28;19947;-77
2022/01/06 12:10:23;;;;;;;;;;;;;;;7.18;77.51;101717.91;10477607;28;20369;-77
2022/01/06 12:15:24;;;;;;;;;;;;;;;7.29;77.54;101718.31;10475439;28;20359;-77
2022/01/06 12:20:26;;;;;;;;;;;;;;;7.40;77.24;101708.06;10482837;28;19932;-77
2022/01/06 12:25:29;;;;;;;;;;;;;;;7.75;80.77;101696.78;10478496;28;19947;-77
2022/01/06 12:30:35;;;;;;;;;;;;;;;8.07;80.35;101707.72;10474507;28;19943;-77
2022/01/06 12:35:38;;;;;;;;;;;;;;;8.10;78.56;101703.09;10475227;28;20367;-77
2022/01/06 12:40:42;;;;;;;;;;;;;;;8.15;77.02;101709.06;10474564;28;19928;-77
2022/01/06 12:45:44;;;;;;;;;;;;;;;8.17;76.92;101701.88;10475486;28;19928;-77
2022/01/06 12:50:47;;;;;;;;;;;;;;;8.17;75.24;101699.22;10479145;28;19924;-77
2022/01/06 12:55:50;;;;;;;;;;;;;;;8.20;75.43;101698.22;10477223;28;20301;-77
2022/01/06 13:00:55;;;;;;;;;;;;;;;8.21;75.85;101683.09;10475966;28;19939;-77
2022/01/06 13:05:57;;;;;;;;;;;;;;;8.19;75.04;101675.19;10471637;28;20414;-77
2022/01/06 13:11:08;;;;;;;;;;;;;;;8.11;74.88;101669.38;10471742;28;19931;-77
2022/01/06 13:16:12;;;;;;;;;;;;;;;8.13;75.55;101671.00;10470703;28;20386;-77
2022/01/06 13:21:22;;;;;;;;;;;;;;;8.27;76.97;101664.16;10470548;28;19930;-77
2022/01/06 13:26:30;;;;;;;;;;;;;;;8.29;75.21;101657.84;10476153;28;19924;-78
2022/01/06 13:31:31;;;;;;;;;;;;;;;8.35;74.23;101660.19;10473113;28;19928;-77
2022/01/06 13:36:34;;;;;;;;;;;;;;;8.48;75.83;101641.84;10481384;28;19924;-77
2022/01/06 13:41:42;;;;;;;;;;;;;;;8.50;73.11;101650.63;10480114;28;19997;-77
2022/01/06 13:46:53;;;;;;;;;;;;;;;8.48;72.72;101652.50;10475989;28;20380;-78
2022/01/06 13:51:55;;;;;;;;;;;;;;;8.39;72.22;101640.47;10481215;28;19978;-77
2022/01/06 13:57:08;;;;;;;;;;;;;;;8.38;72.61;101637.88;10479222;28;19931;-77
2022/01/06 14:02:10;;;;;;;;;;;;;;;8.27;72.60;101634.88;10476776;28;19924;-78
2022/01/06 14:07:12;;;;;;;;;;;;;;;8.22;71.76;101632.47;10479406;28;19985;-77
2022/01/06 14:12:15;;;;;;;;;;;;;;;8.26;72.15;101619.88;10480678;28;20496;-80
2022/01/06 14:17:17;;;;;;;;;;;;;;;8.31;72.23;101626.69;10475394;28;19924;-77
2022/01/06 14:22:18;;;;;;;;;;;;;;;8.31;71.21;101621.38;10468801;28;19986;-78
2022/01/06 14:27:21;;;;;;;;;;;;;;;8.30;70.07;101616.13;10474743;28;19932;-77
2022/01/06 14:32:23;;;;;;;;;;;;;;;8.30;70.75;101603.66;10472238;28;19932;-78
2022/01/06 14:37:24;;;;;;;;;;;;;;;8.40;72.34;101601.44;10475490;28;19990;-77
2022/01/06 14:42:27;;;;;;;;;;;;;;;8.43;71.71;101603.09;10487633;28;19924;-78
2022/01/06 14:47:28;;;;;;;;;;;;;;;8.38;71.44;101600.63;10485058;28;19924;-78
2022/01/06 14:52:30;;;;;;;;;;;;;;;8.16;70.55;101611.47;10480978;28;19940;-78
2022/01/06 14:57:33;;;;;;;;;;;;;;;8.09;70.42;101600.25;10477374;28;19936;-77
2022/01/06 15:02:34;;;;;;;;;;;;;;;8.02;70.03;101601.50;10476441;28;20460;-78
2022/01/06 15:07:36;;;;;;;;;;;;;;;7.94;70.49;101601.03;10479189;28;19928;-77
2022/01/06 15:12:39;;;;;;;;;;;;;;;7.93;70.58;101605.50;10482960;28;19925;-77
2022/01/06 15:17:41;;;;;;;;;;;;;;;7.85;70.10;101617.41;10477504;28;19921;-77
2022/01/06 15:22:43;;;;;;;;;;;;;;;7.75;71.21;101615.19;10479413;28;19936;-78
2022/01/06 15:27:46;;;;;;;;;;;;;;;7.74;70.66;101621.47;10482992;28;19955;-78
2022/01/06 15:32:48;;;;;;;;;;;;;;;7.68;71.04;101619.06;10479080;28;19930;-78
2022/01/06 15:37:49;;;;;;;;;;;;;;;7.55;71.07;101625.88;10479122;28;19966;-77
2022/01/06 15:42:52;;;;;;;;;;;;;;;7.54;71.51;101634.81;10476947;28;20623;-78
2022/01/06 15:47:54;;;;;;;;;;;;;;;7.42;71.11;101633.56;10473258;28;19924;-78
2022/01/06 15:52:55;;;;;;;;;;;;;;;7.39;70.42;101625.75;10477229;28;19963;-78
2022/01/06 15:57:58;;;;;;;;;;;;;;;7.33;70.39;101626.03;10476660;28;19971;-78
2022/01/06 16:08:19;;;;;;;;;;;;;;;7.20;70.18;101617.75;10477025;28;20280;-78
2022/01/06 16:13:22;;;;;;;;;;;;;;;7.16;70.21;101622.34;10479618;28;19924;-79
2022/01/06 16:18:24;;;;;;;;;;;;;;;7.12;69.55;101627.84;10478776;28;20413;-78
2022/01/06 16:23:26;;;;;;;;;;;;;;;7.08;69.94;101623.59;10468531;28;19920;-78
2022/01/06 16:28:30;;;;;;;;;;;;;;;7.09;70.47;101620.03;10477031;28;20630;-77
2022/01/06 16:33:32;;;;;;;;;;;;;;;7.02;69.77;101609.66;10474816;28;19931;-78
2022/01/06 16:38:34;;;;;;;;;;;;;;;6.93;69.90;101607.44;10466130;28;19925;-78
2022/01/06 16:43:36;;;;;;;;;;;;;;;6.86;70.18;101605.97;10476765;28;19928;-78
2022/01/06 16:48:38;;;;;;;;;;;;;;;6.77;70.25;101593.09;10475073;28;19925;-79
2022/01/06 16:53:39;;;;;;;;;;;;;;;6.73;70.34;101588.84;10467393;28;19924;-78
2022/01/06 16:58:43;;;;;;;;;;;;;;;6.65;70.44;101578.56;10479071;28;20419;-78
2022/01/06 17:03:44;;;;;;;;;;;;;;;6.63;70.83;101575.97;10479735;28;19935;-78
2022/01/06 17:08:46;;;;;;;;;;;;;;;6.58;71.13;101563.81;10471662;28;19932;-78
2022/01/06 17:13:48;;;;;;;;;;;;;;;6.48;71.28;101559.81;10479010;28;19924;-79
2022/01/06 17:18:50;;;;;;;;;;;;;;;6.48;71.73;101555.41;10484186;28;19924;-78
2022/01/06 17:23:52;;;;;;;;;;;;;;;6.52;72.12;101548.19;10485158;28;19963;-78
2022/01/06 17:28:58;;;;;;;;;;;;;;;6.54;72.02;101555.13;10483526;28;20362;-78
2022/01/06 17:33:59;;;;;;;;;;;;;;;6.53;72.40;101544.56;10482365;28;19924;-78
2022/01/06 17:39:01;;;;;;;;;;;;;;;6.47;71.98;101539.53;10479041;28;20410;-78
2022/01/06 17:44:04;;;;;;;;;;;;;;;6.49;72.54;101530.56;10477878;28;19924;-78
2022/01/06 17:49:05;;;;;;;;;;;;;;;6.45;72.54;101528.13;10483440;28;19932;-79
2022/01/06 17:54:07;;;;;;;;;;;;;;;6.35;72.49;101525.88;10478176;28;19920;-78
2022/01/06 17:59:10;;;;;;;;;;;;;;;6.28;73.11;101515.59;10477487;28;19928;-78
2022/01/06 18:04:12;;;;;;;;;;;;;;;6.27;73.13;101517.38;10479627;28;20441;-78
2022/01/06 18:14:33;;;;;;;;;;;;;;;6.15;73.29;101513.47;10486528;28;19928;-78
2022/01/06 18:19:37;;;;;;;;;;;;;;;6.17;73.60;101493.03;10485854;28;19947;-78
2022/01/06 18:24:38;;;;;;;;;;;;;;;6.18;73.64;101499.22;10492367;28;20328;-79
2022/01/06 18:29:41;;;;;;;;;;;;;;;6.16;73.81;101490.44;10487247;28;19960;-78
2022/01/06 18:34:43;;;;;;;;;;;;;;;6.23;73.89;101491.91;10488032;28;19924;-78
2022/01/06 18:39:44;;;;;;;;;;;;;;;6.14;73.74;101485.22;10493204;28;19931;-79
2022/01/06 18:47:48;;;;;;;23.93;19.90;;;;;;;6.12;74.13;101467.63;10495809;27;20596;-78
2022/01/06 18:52:51;;;;;;;959.50;366.80;;;;;;;6.07;74.01;101467.00;10493814;28;20214;-79
2022/01/06 18:57:53;;;;;;;892.20;311.27;;;;;;;5.55;74.28;101382.53;10490532;28;20659;-78
2022/01/06 19:02:57;;;;;;;1999.90;999.90;;;;;;;5.71;74.38;101410.13;10460118;28;20239;-79
2022/01/06 19:07:59;;;;;;;1999.90;999.90;;;;;;;5.81;74.90;101432.66;10439449;28;20223;-79
2022/01/06 19:13:05;;;;;;;1999.90;999.90;;;;;;;5.82;74.90;101430.84;10433351;28;20855;-78
2022/01/06 19:18:14;;;;;;;1999.90;999.90;;;;;;;5.84;75.68;101437.84;10426272;28;20334;-78
2022/01/06 19:23:16;;;;;;;1999.90;953.40;;;;;;;5.89;75.06;101437.63;10429699;28;20232;-78
2022/01/06 19:28:20;;;;;;;1999.90;999.90;;;;;;;5.77;75.92;101415.16;10422223;28;20290;-78
2022/01/06 19:33:24;;;;;;;1999.90;999.90;;;;;;;5.58;74.97;101380.63;10420568;28;20691;-78
2022/01/06 19:38:26;;;;;;;1999.90;997.50;;;;;;;5.81;75.30;101413.25;10395054;28;20283;-79
2022/01/06 19:43:28;;;;;;;1999.90;999.90;;;;;;;5.75;75.91;101394.97;10523920;28;20234;-78
2022/01/06 19:48:33;;;;;;;1999.90;999.90;;;;;;;5.72;75.64;101379.19;10500424;27;20217;-78
2022/01/06 19:53:36;;;;;;;1999.90;999.90;;;;;;;5.56;75.23;101350.69;10530155;28;20619;-79
2022/01/06 19:58:39;;;;;;;1999.90;999.90;;;;;;;5.82;75.57;101389.31;10496787;28;20229;-78
2022/01/06 20:03:43;;;;;;;1999.90;999.90;;;;;;;5.70;75.93;101357.19;10493249;28;20231;-78
2022/01/06 20:08:50;;;;;;;1999.90;999.90;;;;;;;5.88;75.49;101388.19;10495761;28;20650;-78
2022/01/06 20:13:52;;;;;;;1999.90;999.90;;;;;;;5.83;75.47;101366.31;10492150;28;20801;-77
2022/01/06 20:18:56;;;;;;;1999.90;999.90;;;;;;;5.88;75.01;101372.31;10492161;28;20211;-78
2022/01/06 20:23:58;;;;;;;1999.90;999.90;;;;;;;5.40;75.33;101291.34;10492554;28;20719;-77
2022/01/06 20:29:00;;;;;;;1999.90;999.90;;;;;;;5.77;75.05;101333.00;10494397;28;20611;-78
2022/01/06 20:34:03;;;;;;;1209.67;783.10;;;;;;;5.87;74.72;101341.41;10492637;28;20222;-79
2022/01/06 20:39:05;;;;;;;71.73;48.33;;;;;;;5.46;74.34;101280.47;10496204;28;20311;-78
2022/01/06 20:44:07;;;;;;;44.60;35.70;;;;;;;5.83;75.04;101334.50;10493868;28;20262;-78
2022/01/06 20:54:30;;;;;;;10.43;9.63;;;;;;;5.61;74.05;101294.84;10490030;28;20294;-78
2022/01/06 20:59:32;;;;;;;0.40;0.40;;;;;;;5.81;73.56;101315.19;10487383;28;20203;-77
2022/01/06 21:04:35;;;;;;;0.20;0.20;;;;;;;5.84;73.25;101315.06;10485631;28;20230;-78
2022/01/06 21:09:39;;;;;;;0.83;0.73;;;;;;;5.77;73.26;101295.88;10492107;28;20222;-78
2022/01/06 21:14:41;;;;;;;0.60;0.60;;;;;;;5.76;72.74;101288.00;10484954;28;20207;-78
2022/01/06 21:19:45;;;;;;;1.07;0.97;;;;;;;5.76;72.31;101272.94;10483800;28;20211;-78
2022/01/06 21:24:47;;;;;;;1.20;1.10;;;;;;;5.87;72.40;101280.44;10489070;28;20229;-78
2022/01/06 21:29:48;;;;;;;1.30;1.20;;;;;;;5.58;72.26;101221.66;10485664;28;20221;-78
2022/01/06 21:35:00;;;;;;;0.70;0.70;;;;;;;5.79;71.84;101248.97;10490985;28;20222;-78
2022/01/06 21:40:02;;;;;;;0.87;0.77;;;;;;;5.71;71.64;101226.38;10487380;28;20211;-78
2022/01/06 21:45:08;;;;;;;0.77;0.77;;;;;;;5.80;72.17;101232.16;10487977;28;20234;-78
2022/01/06 21:50:15;;;;;;;0.40;0.40;;;;;;;5.72;72.12;101215.72;10483657;28;20212;-77
2022/01/06 21:55:22;;;;;;;1.00;0.93;;;;;;;5.64;71.68;101207.28;10483987;28;20207;-78
2022/01/06 22:00:28;;;;;;;0.30;0.30;;;;;;;5.60;71.25;101184.50;10480967;28;20295;-77
2022/01/06 22:05:32;;;;;;;0.13;0.13;;;;;;;5.73;71.53;101208.66;10473675;28;20222;-77
2022/01/06 22:10:38;;;;;;;0.20;0.20;;;;;;;5.76;71.70;101211.16;10482592;28;20202;-78
2022/01/06 22:15:41;;;;;;;0.40;0.40;;;;;;;5.69;72.00;101184.09;10485676;28;20199;-78
2022/01/06 22:20:47;;;;;;;0.23;0.23;;;;;;;5.75;71.50;101183.78;10478501;28;20223;-78
2022/01/06 22:25:53;;;;;;;0.20;0.20;;;;;;;5.75;71.57;101191.75;10477925;28;20720;-77
2022/01/06 22:30:55;;;;;;;0.10;0.10;;;;;;;5.74;71.71;101187.34;10476258;28;20720;-77
2022/01/06 22:35:58;;;;;;;0.73;0.73;;;;;;;5.87;72.40;101185.00;10471904;28;21052;-77
2022/01/06 22:41:01;;;;;;;0.20;0.20;;;;;;;5.66;72.15;101161.22;10479108;28;20211;-77
2022/01/06 22:46:03;;;;;;;0.13;0.13;;;;;;;5.79;71.79;101181.88;10487812;28;22071;-78
2022/01/06 22:51:09;;;;;;;0.23;0.23;;;;;;;5.61;72.50;101160.59;10483015;28;20202;-78
2022/01/06 22:56:11;;;;;;;0.53;0.53;;;;;;;5.55;73.19;101173.25;10482373;28;20289;-77
2022/01/06 23:01:13;;;;;;;0.77;0.77;;;;;;;5.52;74.23;101171.59;10478908;28;21069;-77
2022/01/06 23:06:16;;;;;;;0.27;0.27;;;;;;;5.35;74.94;101145.00;10476418;28;20226;-77
2022/01/06 23:11:18;;;;;;;0.10;0.10;;;;;;;5.31;74.77;101135.47;10479863;28;20910;-78
2022/01/06 23:16:20;;;;;;;0.20;0.20;;;;;;;4.98;75.72;101097.19;10475924;28;20250;-77
2022/01/06 23:21:26;;;;;;;0.30;0.30;;;;;;;5.31;75.90;101141.63;10471875;28;20215;-77
2022/01/06 23:26:28;;;;;;;0.60;0.60;;;;;;;5.24;76.99;101145.50;10476282;28;20230;-77
2022/01/06 23:31:30;;;;;;;0.17;0.17;;;;;;;4.80;77.14;101072.41;10477062;28;20230;-77
2022/01/06 23:36:34;;;;;;;0.40;0.40;;;;;;;5.24;77.20;101119.00;10477495;28;21046;-77
2022/01/06 23:41:35;;;;;;;0.30;0.30;;;;;;;5.10;78.14;101081.69;10482250;28;20264;-77
2022/01/06 23:46:37;;;;;;;0.20;0.20;;;;;;;5.13;77.82;101087.72;10482241;28;20744;-78
2022/01/06 23:51:41;;;;;;;1.35;1.30;;;;;;;5.17;77.97;101084.00;10477362;28;20211;-77
2022/01/06 23:56:43;;;;;;;0.00;0.00;;;;;;;5.20;77.54;101080.38;10484494;28;20671;-77
